Time;durP1;ratioP1;P1;durP2;ratioP2;P2;SDS_P1;SDS_P2;PMS_P1;PMS_P2;Temp;Humidity;BMP_temperature;BMP_pressure;BME280_temperature;BME280_humidity;BME280_pressure;Samples;Min_cycle;Max_cycle;Signal;HPM_P1;HPM_P2
2023/04/23 00:02:14;;;;;;;37.60;27.88;;;9.50;99.90;;;;;;5109641;28;20036;-60
2023/04/23 00:04:49;;;;;;;33.42;25.67;;;9.50;99.90;;;;;;5109674;28;20419;-61
2023/04/23 00:07:15;;;;;;;30.83;24.58;;;9.50;99.90;;;;;;5094641;28;20040;-61
2023/04/23 00:09:43;;;;;;;33.58;25.70;;;9.50;99.90;;;;;;5108991;28;20047;-61
2023/04/23 00:12:09;;;;;;;30.98;23.80;;;9.50;99.90;;;;;;5089698;28;20079;-61
2023/04/23 00:14:35;;;;;;;31.45;23.77;;;9.50;99.90;;;;;;5089440;28;20517;-61
2023/04/23 00:17:01;;;;;;;30.75;23.63;;;9.40;99.90;;;;;;5090345;28;20172;-61
2023/04/23 00:19:26;;;;;;;27.87;21.90;;;9.40;99.90;;;;;;5087291;28;20113;-60
2023/04/23 00:21:52;;;;;;;31.87;23.33;;;9.30;99.90;;;;;;5093812;28;20033;-61
2023/04/23 00:24:19;;;;;;;38.47;26.30;;;9.30;99.90;;;;;;5089589;28;20274;-61
2023/04/23 00:26:45;;;;;;;30.65;24.92;;;9.30;99.90;;;;;;5090572;28;20036;-60
2023/04/23 00:29:10;;;;;;;38.80;27.33;;;9.30;99.90;;;;;;5088039;28;20464;-61
2023/04/23 00:31:36;;;;;;;31.20;24.70;;;9.30;99.90;;;;;;5102719;28;20281;-61
2023/04/23 00:34:02;;;;;;;30.70;23.70;;;9.30;99.90;;;;;;5102259;28;20028;-61
2023/04/23 00:36:27;;;;;;;42.55;29.95;;;9.30;99.90;;;;;;5090506;28;20113;-61
2023/04/23 00:38:53;;;;;;;43.13;29.10;;;9.30;99.90;;;;;;5094792;28;20043;-60
2023/04/23 00:41:18;;;;;;;43.70;29.77;;;9.30;99.90;;;;;;5093214;28;20409;-61
2023/04/23 00:43:44;;;;;;;39.77;29.77;;;9.20;99.90;;;;;;5103061;28;20330;-61
2023/04/23 00:46:11;;;;;;;39.70;30.50;;;9.20;99.90;;;;;;5094600;28;20094;-61
2023/04/23 00:48:38;;;;;;;44.17;28.95;;;9.10;99.90;;;;;;5111593;28;20466;-61
2023/04/23 00:51:05;;;;;;;47.10;33.60;;;9.10;99.90;;;;;;5106057;28;20114;-62
2023/04/23 00:53:31;;;;;;;45.47;32.15;;;9.10;99.90;;;;;;5094273;28;20119;-61
2023/04/23 00:55:58;;;;;;;;;;;9.00;99.90;;;;;;5093362;28;20062;-61
2023/04/23 00:58:24;;;;;;;48.85;34.20;;;9.00;99.90;;;;;;5103533;28;19976;-61
2023/04/23 01:00:51;;;;;;;53.55;36.97;;;9.00;99.90;;;;;;5098903;28;20031;-61
2023/04/23 01:03:17;;;;;;;54.25;36.72;;;9.00;99.90;;;;;;5113370;28;20520;-60
2023/04/23 01:05:43;;;;;;;54.88;37.38;;;9.00;99.90;;;;;;5113361;28;20062;-61
2023/04/23 01:08:15;;;;;;;54.03;36.55;;;9.00;99.90;;;;;;5099261;28;20040;-61
2023/04/23 01:10:42;;;;;;;52.92;39.20;;;9.00;99.90;;;;;;5096827;28;20036;-61
2023/04/23 01:13:10;;;;;;;60.80;43.35;;;9.00;99.90;;;;;;5092585;28;20072;-60
2023/04/23 01:15:36;;;;;;;68.38;45.22;;;9.00;99.90;;;;;;5092702;28;20051;-62
2023/04/23 01:18:03;;;;;;;68.03;44.83;;;9.00;99.90;;;;;;5102584;28;20035;-60
2023/04/23 01:20:29;;;;;;;66.70;44.60;;;9.00;99.90;;;;;;5112272;28;20039;-62
2023/04/23 01:22:55;;;;;;;71.45;46.15;;;9.00;99.90;;;;;;5096094;27;20040;-62
2023/04/23 01:25:21;;;;;;;70.95;45.90;;;8.90;99.90;;;;;;5092507;28;20512;-61
2023/04/23 01:27:47;;;;;;;74.03;48.88;;;8.90;99.90;;;;;;5092518;28;20068;-62
2023/04/23 01:30:13;;;;;;;68.50;46.10;;;8.90;99.90;;;;;;5092015;28;20040;-61
2023/04/23 01:32:40;;;;;;;71.03;47.22;;;8.90;99.90;;;;;;5105066;28;20040;-61
2023/04/23 01:35:07;;;;;;;71.35;47.72;;;8.80;99.90;;;;;;5112923;28;20051;-61
2023/04/23 01:37:33;;;;;;;68.63;47.08;;;8.90;99.90;;;;;;5107418;28;20043;-60
2023/04/23 01:39:59;;;;;;;76.88;49.15;;;8.80;99.90;;;;;;5106068;28;20223;-61
2023/04/23 01:42:25;;;;;;;;;;;8.80;99.90;;;;;;5111808;28;20130;-62
2023/04/23 01:44:51;;;;;;;74.13;49.15;;;8.80;99.90;;;;;;5110690;28;20007;-61
2023/04/23 01:47:18;;;;;;;70.50;46.53;;;8.80;99.90;;;;;;5110832;28;20043;-61
2023/04/23 01:49:44;;;;;;;73.25;49.60;;;8.80;99.90;;;;;;5109454;28;20046;-61
2023/04/23 01:52:10;;;;;;;76.40;49.65;;;8.80;99.90;;;;;;5112530;28;20040;-61
2023/04/23 01:54:35;;;;;;;76.85;51.53;;;8.80;99.90;;;;;;5102677;27;20124;-62
2023/04/23 01:57:01;;;;;;;77.70;53.33;;;8.80;99.90;;;;;;5091691;28;20493;-61
2023/04/23 01:59:27;;;;;;;77.35;51.50;;;8.80;99.90;;;;;;5091641;28;20113;-61
2023/04/23 02:01:53;;;;;;;87.07;54.47;;;8.80;99.90;;;;;;5107985;28;20028;-61
2023/04/23 02:04:18;;;;;;;80.90;53.60;;;8.80;99.90;;;;;;5092948;28;20063;-60
2023/04/23 02:06:46;;;;;;;83.45;54.72;;;8.80;99.90;;;;;;5103075;28;20471;-61
2023/04/23 02:09:12;;;;;;;86.65;57.28;;;8.80;99.90;;;;;;5091694;28;20429;-61
2023/04/23 02:11:38;;;;;;;90.72;58.25;;;8.90;99.90;;;;;;5110927;28;20074;-61
2023/04/23 02:14:05;;;;;;;87.50;59.43;;;8.90;99.90;;;;;;5110560;28;20503;-62
2023/04/23 02:16:31;;;;;;;97.05;59.10;;;8.90;99.90;;;;;;5091646;28;20046;-60
2023/04/23 02:18:57;;;;;;;94.53;59.03;;;8.90;99.90;;;;;;5090426;28;20044;-61
2023/04/23 02:21:24;;;;;;;94.88;60.55;;;8.90;99.90;;;;;;5109655;28;20067;-61
2023/04/23 02:23:49;;;;;;;91.22;58.35;;;8.90;99.90;;;;;;5110036;28;20408;-61
2023/04/23 02:26:15;;;;;;;93.15;59.70;;;8.90;99.90;;;;;;5092644;28;20032;-61
2023/04/23 02:28:41;;;;;;;96.22;61.53;;;8.80;99.90;;;;;;5090809;28;20119;-60
2023/04/23 02:31:07;;;;;;;91.25;58.03;;;8.90;99.90;;;;;;5092047;28;20520;-61
2023/04/23 02:33:32;;;;;;;86.15;56.00;;;8.80;99.90;;;;;;5091304;28;20044;-62
2023/04/23 02:35:58;;;;;;;91.53;59.87;;;8.80;99.90;;;;;;5106246;28;20181;-62
2023/04/23 02:38:24;;;;;;;87.55;57.33;;;8.80;99.90;;;;;;5097625;28;20040;-61
2023/04/23 02:40:49;;;;;;;79.13;53.43;;;8.70;99.90;;;;;;5100450;28;20039;-61
2023/04/23 02:43:15;;;;;;;84.50;55.80;;;8.70;99.90;;;;;;5112203;28;20265;-62
2023/04/23 02:45:40;;;;;;;88.15;55.08;;;8.70;99.90;;;;;;5099720;28;20028;-61
2023/04/23 02:48:06;;;;;;;89.53;58.53;;;8.70;99.90;;;;;;5090286;28;20039;-61
2023/04/23 02:50:32;;;;;;;86.10;56.83;;;8.70;99.90;;;;;;5090107;28;20036;-61
2023/04/23 02:52:57;;;;;;;81.77;53.20;;;8.70;99.90;;;;;;5090328;28;20036;-61
2023/04/23 02:55:24;;;;;;;79.10;52.53;;;8.60;99.90;;;;;;5097878;28;20386;-61
2023/04/23 02:57:50;;;;;;;76.82;50.15;;;8.50;99.90;;;;;;5110367;28;20549;-62
2023/04/23 03:00:16;;;;;;;78.28;50.08;;;8.50;99.90;;;;;;5108750;28;20047;-62
2023/04/23 03:02:42;;;;;;;72.25;47.47;;;8.40;99.90;;;;;;5110913;28;20036;-61
2023/04/23 03:05:08;;;;;;;71.75;48.38;;;8.30;99.90;;;;;;5107471;28;20454;-62
2023/04/23 03:07:34;;;;;;;70.68;47.70;;;8.30;99.90;;;;;;5088715;28;20288;-62
2023/04/23 03:09:59;;;;;;;69.45;47.83;;;8.20;99.90;;;;;;5094632;28;20055;-61
2023/04/23 03:12:25;;;;;;;68.90;45.17;;;8.10;99.90;;;;;;5101892;28;20040;-62
2023/04/23 03:14:50;;;;;;;82.47;48.27;;;8.10;99.90;;;;;;5090520;28;20047;-61
2023/04/23 03:17:16;;;;;;;77.97;50.43;;;8.10;99.90;;;;;;5091617;27;20054;-62
2023/04/23 03:19:42;;;;;;;85.90;53.75;;;8.10;99.90;;;;;;5090008;28;20044;-61
2023/04/23 03:22:07;;;;;;;94.47;56.30;;;8.00;99.90;;;;;;5100885;28;20119;-60
2023/04/23 03:24:34;;;;;;;87.97;55.93;;;8.00;99.90;;;;;;5092286;28;20044;-62
2023/04/23 03:26:59;;;;;;;86.72;56.72;;;8.00;99.90;;;;;;5090540;28;20278;-61
2023/04/23 03:29:25;;;;;;;86.70;54.28;;;8.00;99.90;;;;;;5088642;28;20050;-62
2023/04/23 03:31:51;;;;;;;78.82;50.33;;;8.10;99.90;;;;;;5090332;28;20047;-61
2023/04/23 03:34:16;;;;;;;84.80;54.70;;;8.00;99.90;;;;;;5090045;28;20088;-62
2023/04/23 03:36:43;;;;;;;73.33;50.13;;;8.00;99.90;;;;;;5102275;28;20039;-60
2023/04/23 03:39:09;;;;;;;70.20;46.38;;;8.00;99.90;;;;;;5109241;28;20359;-61
2023/04/23 03:41:35;;;;;;;78.65;49.00;;;8.00;99.90;;;;;;5108795;28;20040;-61
2023/04/23 03:44:00;;;;;;;76.95;49.78;;;7.90;99.90;;;;;;5110538;28;20063;-61
2023/04/23 03:46:26;;;;;;;78.63;49.03;;;7.90;99.90;;;;;;5101677;28;20036;-61
2023/04/23 03:48:51;;;;;;;76.07;49.23;;;7.90;99.90;;;;;;5089147;28;20412;-61
2023/04/23 03:51:17;;;;;;;74.27;48.83;;;7.90;99.90;;;;;;5089893;28;20654;-61
2023/04/23 03:53:44;;;;;;;80.25;50.85;;;7.90;99.90;;;;;;5090030;28;20040;-60
2023/04/23 03:56:10;;;;;;;77.38;50.22;;;7.80;99.90;;;;;;5094525;28;20471;-61
2023/04/23 03:58:35;;;;;;;82.83;52.93;;;7.80;99.90;;;;;;5108339;28;20118;-61
2023/04/23 04:01:01;;;;;;;76.47;50.43;;;7.80;99.90;;;;;;5107805;28;20433;-61
2023/04/23 04:03:27;;;;;;;84.40;53.07;;;7.80;99.90;;;;;;5110110;28;20075;-61
2023/04/23 04:05:53;;;;;;;84.28;54.38;;;7.80;99.90;;;;;;5092400;28;20044;-61
2023/04/23 04:08:19;;;;;;;83.37;51.37;;;7.70;99.90;;;;;;5108187;28;20048;-62
2023/04/23 04:10:45;;;;;;;85.78;54.38;;;7.70;99.90;;;;;;5109667;28;20040;-62
2023/04/23 04:13:10;;;;;;;92.82;58.63;;;7.70;99.90;;;;;;5097220;28;20119;-62
2023/04/23 04:15:36;;;;;;;95.03;58.53;;;7.60;99.90;;;;;;5095645;28;20039;-61
2023/04/23 04:18:02;;;;;;;104.60;64.67;;;7.60;99.90;;;;;;5111920;28;20047;-61
2023/04/23 04:20:27;;;;;;;111.23;66.53;;;7.60;99.90;;;;;;5109019;28;20067;-62
2023/04/23 04:22:56;;;;;;;112.13;66.53;;;7.60;99.90;;;;;;5094490;28;20072;-61
2023/04/23 04:25:22;;;;;;;123.07;72.38;;;7.60;99.90;;;;;;5095285;28;20397;-62
2023/04/23 04:27:48;;;;;;;;;;;7.60;99.90;;;;;;5107927;28;20039;-61
2023/04/23 04:30:14;;;;;;;128.90;71.43;;;7.70;99.90;;;;;;5112392;28;19916;-62
2023/04/23 04:32:41;;;;;;;144.55;75.38;;;7.70;99.90;;;;;;5093584;28;20036;-61
2023/04/23 04:35:07;;;;;;;146.88;81.93;;;7.70;99.90;;;;;;5093135;28;20055;-61
2023/04/23 04:37:34;;;;;;;154.70;81.32;;;7.70;99.90;;;;;;5093715;28;20044;-60
2023/04/23 04:40:03;;;;;;;154.07;81.57;;;7.70;99.90;;;;;;5092743;28;20076;-61
2023/04/23 04:42:29;;;;;;;149.25;78.63;;;7.80;99.90;;;;;;5110423;28;20306;-62
2023/04/23 04:44:58;;;;;;;142.15;79.38;;;7.80;99.90;;;;;;5113687;28;20032;-61
2023/04/23 04:47:24;;;;;;;151.63;81.32;;;7.80;99.90;;;;;;5111606;28;20148;-60
2023/04/23 04:49:50;;;;;;;152.63;80.80;;;7.80;99.90;;;;;;5111950;28;20044;-61
2023/04/23 04:52:16;;;;;;;138.52;77.43;;;7.80;99.90;;;;;;5099603;28;20042;-61
2023/04/23 04:54:41;;;;;;;162.05;83.20;;;7.90;99.90;;;;;;5093221;28;20032;-61
2023/04/23 04:57:07;;;;;;;157.27;81.53;;;7.90;99.90;;;;;;5094575;28;20073;-62
2023/04/23 04:59:33;;;;;;;152.25;83.38;;;7.90;99.90;;;;;;5112012;28;20031;-61
2023/04/23 05:01:59;;;;;;;164.33;83.13;;;8.00;99.90;;;;;;5113117;27;20027;-61
2023/04/23 05:04:24;;;;;;;165.20;86.07;;;8.00;99.90;;;;;;5100162;28;20297;-61
2023/04/23 05:06:50;;;;;;;169.82;85.75;;;8.00;99.90;;;;;;5102089;28;20070;-61
2023/04/23 05:09:16;;;;;;;168.75;86.97;;;8.10;99.90;;;;;;5097706;28;20044;-61
2023/04/23 05:11:42;;;;;;;174.57;85.27;;;8.10;99.90;;;;;;5101101;28;20046;-61
2023/04/23 05:14:07;;;;;;;173.65;85.88;;;8.20;99.90;;;;;;5101010;28;20355;-62
2023/04/23 05:16:33;;;;;;;162.23;85.43;;;8.20;99.90;;;;;;5100781;28;20036;-61
2023/04/23 05:18:59;;;;;;;165.93;86.35;;;8.20;99.90;;;;;;5099472;28;20496;-60
2023/04/23 05:21:26;;;;;;;155.50;80.30;;;8.30;99.90;;;;;;5100902;28;20127;-61
2023/04/23 05:23:52;;;;;;;162.02;83.80;;;8.30;99.90;;;;;;5100825;28;20488;-61
2023/04/23 05:26:19;;;;;;;153.73;83.32;;;8.40;99.90;;;;;;5101110;28;20400;-61
2023/04/23 05:28:45;;;;;;;168.95;82.47;;;8.40;99.90;;;;;;5100029;28;20039;-61
2023/04/23 05:31:10;;;;;;;165.68;82.90;;;8.40;99.90;;;;;;5100653;28;20127;-61
2023/04/23 05:33:36;;;;;;;163.95;82.90;;;8.50;99.90;;;;;;5101871;27;20517;-61
2023/04/23 05:36:02;;;;;;;158.38;82.97;;;8.50;99.90;;;;;;5098770;28;20039;-60
2023/04/23 05:38:28;;;;;;;153.32;78.30;;;8.60;99.90;;;;;;5098655;28;20477;-62
2023/04/23 05:40:53;;;;;;;140.83;76.70;;;8.60;99.90;;;;;;5100471;28;20545;-61
2023/04/23 05:43:19;;;;;;;134.83;73.63;;;8.60;99.90;;;;;;5100673;28;20296;-61
2023/04/23 05:45:45;;;;;;;147.93;76.50;;;8.70;99.90;;;;;;5099333;28;20032;-62
2023/04/23 05:48:10;;;;;;;142.47;77.13;;;8.70;99.90;;;;;;5101953;28;20368;-62
2023/04/23 05:50:36;;;;;;;137.38;75.28;;;8.70;99.90;;;;;;5099318;28;20275;-61
2023/04/23 05:53:02;;;;;;;142.35;75.35;;;8.70;99.90;;;;;;5098090;28;20051;-61
2023/04/23 05:55:27;;;;;;;133.83;73.17;;;8.70;99.90;;;;;;5099493;28;20038;-61
2023/04/23 05:57:53;;;;;;;132.20;74.47;;;8.70;99.90;;;;;;5098587;28;20377;-62
2023/04/23 06:00:19;;;;;;;134.23;72.00;;;8.80;99.90;;;;;;5101470;28;20048;-61
2023/04/23 06:02:45;;;;;;;;;;;8.90;99.90;;;;;;5102833;28;20046;-62
2023/04/23 06:05:10;;;;;;;114.55;64.07;;;9.00;99.90;;;;;;5101343;28;19920;-62
2023/04/23 06:07:36;;;;;;;127.25;64.32;;;9.10;99.90;;;;;;5099029;28;20102;-62
2023/04/23 06:10:04;;;;;;;114.00;64.60;;;9.20;99.90;;;;;;5099443;28;21595;-61
2023/04/23 06:12:30;;;;;;;106.47;63.72;;;9.30;99.90;;;;;;5100159;28;20671;-62
2023/04/23 06:14:55;;;;;;;106.47;62.53;;;9.40;99.90;;;;;;5100917;28;20035;-63
2023/04/23 06:17:21;;;;;;;102.10;63.05;;;9.50;99.90;;;;;;5099410;28;20398;-63
2023/04/23 06:19:46;;;;;;;101.67;62.83;;;9.60;99.90;;;;;;5097991;28;20521;-59
2023/04/23 06:22:12;;;;;;;92.50;55.70;;;9.80;99.90;;;;;;5099177;28;20417;-59
2023/04/23 06:24:38;;;;;;;94.30;59.43;;;9.90;99.90;;;;;;5099325;28;20462;-58
2023/04/23 06:27:03;;;;;;;93.00;57.30;;;10.00;99.90;;;;;;5100881;28;20055;-59
2023/04/23 06:29:29;;;;;;;86.47;54.25;;;10.10;99.90;;;;;;5098172;28;20484;-58
2023/04/23 06:31:55;;;;;;;82.68;52.25;;;10.20;99.90;;;;;;5097682;28;20511;-59
2023/04/23 06:34:21;;;;;;;83.20;53.35;;;10.20;99.90;;;;;;5097006;28;20047;-60
2023/04/23 06:36:47;;;;;;;80.88;52.38;;;10.30;99.90;;;;;;5098558;28;20042;-59
2023/04/23 06:39:12;;;;;;;78.70;51.57;;;10.30;99.90;;;;;;5096452;28;20040;-59
2023/04/23 06:41:38;;;;;;;75.63;47.70;;;10.40;99.90;;;;;;5098934;27;20070;-59
2023/04/23 06:44:03;;;;;;;75.90;49.33;;;10.50;99.90;;;;;;5100310;27;20282;-59
2023/04/23 06:46:29;;;;;;;73.10;48.37;;;10.60;99.90;;;;;;5097099;28;20825;-62
2023/04/23 06:48:55;;;;;;;66.15;44.45;;;10.80;99.90;;;;;;5100070;28;20399;-64
2023/04/23 06:51:20;;;;;;;63.93;45.97;;;10.90;99.90;;;;;;5098934;28;20047;-61
2023/04/23 06:53:46;;;;;;;64.45;41.90;;;11.00;99.90;;;;;;5098761;28;20146;-61
2023/04/23 06:56:12;;;;;;;58.72;40.60;;;11.10;99.90;;;;;;5099318;28;20039;-62
2023/04/23 06:58:38;;;;;;;54.67;39.28;;;11.20;99.90;;;;;;5100520;28;20050;-61
2023/04/23 07:01:03;;;;;;;51.13;35.88;;;11.30;99.90;;;;;;5095094;28;20027;-61
2023/04/23 07:03:32;;;;;;;50.53;36.03;;;11.40;99.90;;;;;;5104042;28;20046;-61
2023/04/23 07:05:58;;;;;;;57.58;37.97;;;11.50;99.90;;;;;;5098017;28;20039;-61
2023/04/23 07:08:23;;;;;;;53.97;37.92;;;11.60;99.90;;;;;;5108084;28;20031;-60
2023/04/23 07:10:49;;;;;;;50.67;36.60;;;11.70;99.90;;;;;;5104212;28;20028;-61
2023/04/23 07:13:15;;;;;;;48.55;34.78;;;11.70;99.90;;;;;;5101189;28;20392;-61
2023/04/23 07:15:41;;;;;;;52.15;36.38;;;11.70;99.90;;;;;;5093079;28;20047;-62
2023/04/23 07:18:08;;;;;;;55.08;37.92;;;11.70;99.90;;;;;;5102204;28;20039;-61
2023/04/23 07:20:33;;;;;;;56.10;37.08;;;11.70;99.90;;;;;;5094534;28;20031;-61
2023/04/23 07:22:59;;;;;;;49.37;35.67;;;11.60;99.90;;;;;;5102502;28;20032;-61
2023/04/23 07:25:25;;;;;;;53.30;37.78;;;11.60;99.90;;;;;;5089357;28;20078;-61
2023/04/23 07:27:52;;;;;;;50.20;35.63;;;11.60;99.90;;;;;;5090560;28;20032;-61
2023/04/23 07:30:18;;;;;;;55.50;38.38;;;11.60;99.90;;;;;;5091142;28;20048;-61
2023/04/23 07:32:45;;;;;;;48.33;35.38;;;11.60;99.90;;;;;;5090628;28;20097;-61
2023/04/23 07:35:11;;;;;;;48.40;34.40;;;11.50;99.90;;;;;;5092096;28;20472;-62
2023/04/23 07:37:37;;;;;;;50.10;36.80;;;11.50;99.90;;;;;;5101150;28;20073;-60
2023/04/23 07:40:04;;;;;;;50.53;35.60;;;11.50;99.90;;;;;;5107593;28;20040;-61
2023/04/23 07:42:30;;;;;;;55.38;39.20;;;11.50;99.90;;;;;;5094016;28;20449;-61
2023/04/23 07:44:56;;;;;;;52.30;36.83;;;11.50;99.90;;;;;;5110032;28;20074;-61
2023/04/23 07:47:22;;;;;;;55.67;37.30;;;11.50;99.90;;;;;;5104365;28;20098;-61
2023/04/23 07:49:47;;;;;;;48.58;36.08;;;11.50;99.90;;;;;;5092666;28;20035;-62
2023/04/23 07:52:14;;;;;;;47.25;34.95;;;11.60;99.90;;;;;;5089935;28;20429;-60
2023/04/23 07:54:40;;;;;;;52.78;37.53;;;11.50;99.90;;;;;;5105119;28;20046;-61
2023/04/23 07:57:05;;;;;;;49.00;35.40;;;11.50;99.90;;;;;;5107896;28;20035;-60
2023/04/23 07:59:31;;;;;;;55.08;38.15;;;11.50;99.90;;;;;;5099580;28;20051;-60
2023/04/23 08:01:56;;;;;;;50.53;37.03;;;11.60;99.90;;;;;;5091439;28;20040;-61
2023/04/23 08:04:22;;;;;;;49.88;35.00;;;11.80;99.90;;;;;;5109260;28;20500;-61
2023/04/23 08:06:48;;;;;;;47.97;33.20;;;11.90;99.90;;;;;;5108255;28;20051;-60
2023/04/23 08:09:13;;;;;;;46.80;33.88;;;12.00;99.90;;;;;;5095263;28;20032;-61
2023/04/23 08:11:40;;;;;;;44.72;33.20;;;12.20;99.90;;;;;;5089609;28;20069;-61
2023/04/23 08:14:06;;;;;;;44.85;34.15;;;12.30;99.90;;;;;;5107343;28;20043;-60
2023/04/23 08:16:31;;;;;;;43.80;32.93;;;12.40;99.90;;;;;;5096733;28;20036;-60
2023/04/23 08:18:57;;;;;;;40.80;30.57;;;12.50;99.90;;;;;;5098780;28;20312;-60
2023/04/23 08:21:24;;;;;;;40.03;31.15;;;12.60;99.90;;;;;;5100546;28;20297;-61
2023/04/23 08:23:50;;;;;;;40.28;31.27;;;12.60;99.90;;;;;;5095099;28;20127;-60
2023/04/23 08:26:15;;;;;;;41.42;30.88;;;12.70;99.90;;;;;;5088855;28;20265;-61
2023/04/23 08:28:41;;;;;;;39.28;28.83;;;12.70;99.90;;;;;;5096470;28;20051;-61
2023/04/23 08:31:07;;;;;;;35.85;28.23;;;12.80;99.90;;;;;;5088814;28;20128;-59
2023/04/23 08:33:32;;;;;;;34.10;26.67;;;12.90;99.90;;;;;;5100439;28;20031;-61
2023/04/23 08:35:58;;;;;;;34.65;26.00;;;13.00;99.90;;;;;;5099521;28;20081;-60
2023/04/23 08:38:23;;;;;;;31.57;25.70;;;13.00;99.90;;;;;;5107059;28;20409;-61
2023/04/23 08:40:58;;;;;;;36.33;28.27;;;13.10;99.90;;;;;;5107787;28;20285;-60
2023/04/23 08:43:32;;;;;;;33.47;25.23;;;13.30;99.90;;;;;;5098133;28;20119;-61
2023/04/23 08:46:05;;;;;;;30.13;23.90;;;13.40;99.90;;;;;;5089976;28;20111;-60
2023/04/23 08:48:33;;;;;;;28.60;24.65;;;13.50;99.90;;;;;;5108531;28;20031;-60
2023/04/23 08:51:02;;;;;;;27.60;21.88;;;13.60;99.90;;;;;;5093002;28;20511;-60
2023/04/23 08:53:27;;;;;;;30.35;21.30;;;13.70;99.90;;;;;;5100900;28;20043;-61
2023/04/23 08:55:55;;;;;;;26.67;22.02;;;13.70;99.90;;;;;;5102679;28;20043;-63
2023/04/23 08:58:21;;;;;;;29.25;22.50;;;13.80;99.90;;;;;;5106248;28;20043;-60
2023/04/23 09:00:47;;;;;;;;;;;13.90;99.90;;;;;;5101322;28;20032;-60
2023/04/23 09:03:17;;;;;;;29.13;21.13;;;13.90;99.90;;;;;;5103867;28;19974;-61
2023/04/23 09:05:43;;;;;;;25.80;20.30;;;14.00;99.90;;;;;;5105068;28;20050;-61
2023/04/23 09:08:09;;;;;;;27.00;20.30;;;14.10;99.90;;;;;;5096218;28;20039;-61
2023/04/23 09:10:39;;;;;;;22.00;18.08;;;14.20;99.90;;;;;;5111180;28;20416;-60
2023/04/23 09:13:05;;;;;;;19.95;16.00;;;14.30;99.90;;;;;;5111948;28;20188;-60
2023/04/23 09:15:30;;;;;;;20.83;17.50;;;14.40;99.90;;;;;;5096312;28;20093;-60
2023/04/23 09:17:56;;;;;;;20.08;16.35;;;14.50;99.90;;;;;;5112409;28;20051;-61
2023/04/23 09:20:22;;;;;;;20.00;13.85;;;14.50;99.90;;;;;;5109911;28;20039;-61
2023/04/23 09:22:51;;;;;;;17.80;15.23;;;14.60;99.90;;;;;;5112592;28;20129;-61
2023/04/23 09:25:21;;;;;;;18.17;12.90;;;14.70;99.90;;;;;;5101477;28;20071;-61
2023/04/23 09:27:49;;;;;;;17.08;11.65;;;14.80;99.90;;;;;;5112072;28;20054;-61
2023/04/23 09:30:16;;;;;;;15.40;12.10;;;14.90;99.90;;;;;;5109360;27;20039;-61
2023/04/23 09:32:44;;;;;;;18.92;11.63;;;15.00;99.90;;;;;;5113013;28;20047;-61
2023/04/23 09:35:14;;;;;;;16.73;13.23;;;15.10;99.90;;;;;;5102508;28;20044;-61
2023/04/23 09:37:48;;;;;;;14.40;11.00;;;15.20;99.90;;;;;;5111068;28;20052;-62
2023/04/23 09:40:15;;;;;;;13.90;10.13;;;15.30;99.90;;;;;;5106705;28;20051;-61
2023/04/23 09:42:48;;;;;;;13.15;11.52;;;15.40;99.90;;;;;;5091935;28;20079;-59
2023/04/23 09:45:14;;;;;;;14.27;11.48;;;15.50;99.90;;;;;;5099855;28;20116;-61
2023/04/23 09:47:47;;;;;;;11.85;9.65;;;15.60;99.90;;;;;;5090518;28;20035;-59
2023/04/23 09:50:13;;;;;;;11.48;7.18;;;15.60;99.90;;;;;;5103989;28;20043;-58
2023/04/23 09:52:39;;;;;;;10.30;7.47;;;15.70;99.90;;;;;;5108841;28;20407;-58
2023/04/23 09:55:06;;;;;;;8.60;7.25;;;15.70;99.90;;;;;;5106643;28;20050;-59
2023/04/23 09:57:45;;;;;;;9.57;7.35;;;15.70;99.90;;;;;;5090817;28;20508;-58
2023/04/23 10:00:17;;;;;;;8.52;5.43;;;15.80;99.90;;;;;;5101039;28;20081;-59
2023/04/23 10:02:50;;;;;;;15.82;7.03;;;15.90;99.90;;;;;;5097451;28;20040;-59
2023/04/23 10:05:18;;;;;;;11.38;7.45;;;15.90;99.90;;;;;;5107526;28;20035;-58
2023/04/23 10:07:47;;;;;;;8.50;6.55;;;16.00;99.90;;;;;;5108521;28;20096;-59
2023/04/23 10:10:14;;;;;;;7.80;6.10;;;16.00;99.90;;;;;;5090899;28;20386;-58
2023/04/23 10:12:41;;;;;;;12.32;6.50;;;16.00;99.90;;;;;;5091079;28;20540;-59
2023/04/23 10:15:08;;;;;;;9.60;6.38;;;16.00;99.90;;;;;;5092556;28;20067;-58
2023/04/23 10:17:38;;;;;;;8.05;6.65;;;16.10;99.90;;;;;;5089342;28;20059;-58
2023/04/23 10:20:08;;;;;;;9.82;6.32;;;16.20;99.90;;;;;;5098889;28;20231;-57
2023/04/23 10:22:36;;;;;;;9.30;5.65;;;16.30;99.90;;;;;;5111262;28;20553;-56
2023/04/23 10:25:10;;;;;;;6.40;4.82;;;16.30;99.90;;;;;;5109495;28;20038;-57
2023/04/23 10:27:40;;;;;;;7.13;4.40;;;16.30;99.90;;;;;;5110668;28;20123;-56
2023/04/23 10:30:08;;;;;;;6.07;5.05;;;16.40;99.90;;;;;;5104911;28;20097;-57
2023/04/23 10:32:34;;;;;;;4.57;3.88;;;16.50;99.90;;;;;;5091043;28;20040;-59
2023/04/23 10:35:00;;;;;;;7.25;4.35;;;16.60;99.90;;;;;;5092100;28;20098;-58
2023/04/23 10:37:27;;;;;;;6.90;4.13;;;16.60;99.90;;;;;;5102241;28;20039;-58
2023/04/23 10:39:55;;;;;;;8.85;4.88;;;16.60;99.90;;;;;;5107687;28;20044;-57
2023/04/23 10:42:22;;;;;;;5.60;4.18;;;16.60;99.90;;;;;;5101705;28;20100;-57
2023/04/23 10:44:47;;;;;;;6.93;2.92;;;16.60;99.90;;;;;;5096407;28;20082;-57
2023/04/23 10:47:16;;;;;;;7.20;2.80;;;16.60;99.90;;;;;;5094755;28;20059;-58
2023/04/23 10:49:43;;;;;;;6.90;2.72;;;16.60;99.90;;;;;;5100826;28;20032;-57
2023/04/23 10:52:14;;;;;;;6.57;2.60;;;16.70;99.90;;;;;;5109168;28;20054;-55
2023/04/23 10:54:47;;;;;;;2.83;1.92;;;16.70;99.90;;;;;;5106344;28;20039;-58
2023/04/23 10:57:13;;;;;;;10.82;2.65;;;16.70;99.90;;;;;;5092561;28;20036;-58
2023/04/23 10:59:50;;;;;;;5.90;2.67;;;16.80;99.90;;;;;;5101161;28;20058;-57
2023/04/23 11:02:16;;;;;;;3.25;1.40;;;16.80;99.90;;;;;;5107636;28;20039;-59
2023/04/23 11:04:52;;;;;;;4.50;1.00;;;16.90;99.90;;;;;;5099073;28;20032;-54
2023/04/23 11:07:18;;;;;;;4.72;1.55;;;17.00;99.90;;;;;;5102958;28;20063;-56
2023/04/23 11:09:47;;;;;;;4.18;1.88;;;17.00;99.90;;;;;;5097674;28;20078;-59
2023/04/23 11:12:29;;;;;;;4.45;2.00;;;17.10;99.90;;;;;;5110555;28;20035;-56
2023/04/23 11:14:58;;;;;;;8.10;1.48;;;17.10;99.90;;;;;;5107779;28;20063;-57
2023/04/23 11:17:46;;;;;;;8.40;1.63;;;17.10;99.90;;;;;;5109097;28;20043;-59
2023/04/23 11:20:15;;;;;;;3.28;1.30;;;17.20;99.90;;;;;;5095483;28;20052;-59
2023/04/23 11:22:51;;;;;;;4.20;1.67;;;17.20;99.90;;;;;;5110442;28;20043;-59
2023/04/23 11:25:22;;;;;;;6.30;1.27;;;17.30;99.90;;;;;;5108033;28;20057;-59
2023/04/23 11:27:50;;;;;;;3.78;1.92;;;17.30;99.90;;;;;;5108989;28;20369;-59
2023/04/23 11:30:22;;;;;;;4.97;1.85;;;17.40;99.90;;;;;;5106801;28;20040;-59
2023/04/23 11:32:50;;;;;;;7.82;1.45;;;17.50;99.90;;;;;;5090069;28;20532;-59
2023/04/23 11:35:18;;;;;;;4.07;0.90;;;17.60;99.90;;;;;;5090654;28;20105;-58
2023/04/23 11:37:44;;;;;;;2.53;0.80;;;17.70;99.90;;;;;;5109418;28;20075;-59
2023/04/23 11:40:13;;;;;;;2.70;0.65;;;17.70;99.90;;;;;;5108673;28;20139;-58
2023/04/23 11:42:53;;;;;;;5.10;1.23;;;17.60;99.90;;;;;;5090101;28;20081;-59
2023/04/23 11:45:20;;;;;;;4.80;1.23;;;17.50;99.90;;;;;;5089930;28;20374;-58
2023/04/23 11:47:49;;;;;;;6.68;1.33;;;17.40;99.90;;;;;;5108446;28;20093;-58
2023/04/23 11:50:34;;;;;;;4.70;1.10;;;17.30;99.90;;;;;;5109296;28;20047;-58
2023/04/23 11:53:08;;;;;;;2.40;0.75;;;17.40;99.90;;;;;;5089938;28;20109;-60
2023/04/23 11:55:33;;;;;;;4.85;0.70;;;17.50;99.90;;;;;;5089517;28;20048;-57
2023/04/23 11:57:59;;;;;;;5.18;0.60;;;17.60;99.90;;;;;;5109274;28;20176;-59
2023/04/23 12:00:26;;;;;;;6.13;0.95;;;17.70;99.60;;;;;;5109215;28;20093;-58
2023/04/23 12:02:51;;;;;;;2.97;0.70;;;17.80;98.80;;;;;;5108965;28;20092;-59
2023/04/23 12:05:43;;;;;;;4.60;1.13;;;17.80;96.20;;;;;;5109555;28;20126;-59
2023/04/23 12:08:15;;;;;;;4.80;0.95;;;17.80;99.40;;;;;;5099626;28;20044;-59
2023/04/23 12:10:57;;;;;;;4.53;0.93;;;17.80;98.90;;;;;;5088629;28;20580;-58
2023/04/23 12:13:26;;;;;;;8.15;1.48;;;17.80;98.90;;;;;;5094641;28;20068;-59
2023/04/23 12:15:57;;;;;;;6.63;0.70;;;17.80;98.50;;;;;;5095195;28;20132;-59
2023/04/23 12:18:29;;;;;;;6.72;1.00;;;17.80;98.10;;;;;;5089004;28;20082;-59
2023/04/23 12:20:56;;;;;;;6.53;1.30;;;17.70;98.60;;;;;;5088727;28;20036;-59
2023/04/23 12:23:27;;;;;;;3.40;0.70;;;17.70;98.10;;;;;;5108587;28;20119;-59
2023/04/23 12:25:54;;;;;;;6.38;1.10;;;17.70;98.50;;;;;;5105801;28;20035;-59
2023/04/23 12:28:22;;;;;;;5.22;0.70;;;17.70;99.40;;;;;;5106439;28;20031;-58
2023/04/23 12:30:49;;;;;;;4.75;1.08;;;17.60;99.00;;;;;;5101244;28;20036;-59
2023/04/23 12:33:15;;;;;;;7.60;1.23;;;17.50;99.00;;;;;;5089314;28;20207;-59
2023/04/23 12:35:50;;;;;;;2.63;0.98;;;17.50;99.50;;;;;;5089412;28;21731;-59